sensor_id;sensor_type;location;lat;lon;timestamp;pressure;altitude;pressure_sealevel;temperature;humidity
64602;BME280;51013;42.630;23.192;2022-09-09T00:01:52;92673.06;;;16.43;90.46
64602;BME280;51013;42.630;23.192;2022-09-09T00:04:26;92636.13;;;16.23;90.10
64602;BME280;51013;42.630;23.192;2022-09-09T00:07:03;92640.63;;;16.19;90.79
64602;BME280;51013;42.630;23.192;2022-09-09T00:09:40;92609.03;;;16.00;90.22
64602;BME280;51013;42.630;23.192;2022-09-09T00:12:16;92627.25;;;16.05;89.62
64602;BME280;51013;42.630;23.192;2022-09-09T00:14:51;92614.75;;;16.06;89.93
64602;BME280;51013;42.630;23.192;2022-09-09T00:17:31;92655.56;;;16.35;89.38
64602;BME280;51013;42.630;23.192;2022-09-09T00:20:09;92647.22;;;16.33;89.37
64602;BME280;51013;42.630;23.192;2022-09-09T00:22:41;92653.63;;;16.32;89.49
64602;BME280;51013;42.630;23.192;2022-09-09T00:25:16;92630.13;;;16.27;89.53
64602;BME280;51013;42.630;23.192;2022-09-09T00:27:48;92577.91;;;15.93;89.58
64602;BME280;51013;42.630;23.192;2022-09-09T00:30:18;92616.44;;;16.21;89.75
64602;BME280;51013;42.630;23.192;2022-09-09T00:32:48;92622.47;;;16.21;89.62
64602;BME280;51013;42.630;23.192;2022-09-09T00:35:18;92574.41;;;15.82;90.36
64602;BME280;51013;42.630;23.192;2022-09-09T00:37:51;92582.81;;;15.91;90.42
64602;BME280;51013;42.630;23.192;2022-09-09T00:40:24;92619.78;;;16.14;90.10
64602;BME280;51013;42.630;23.192;2022-09-09T00:48:56;92593.56;;;15.72;91.28
64602;BME280;51013;42.630;23.192;2022-09-09T00:51:30;92617.94;;;15.85;91.06
64602;BME280;51013;42.630;23.192;2022-09-09T00:54:35;92620.59;;;15.85;91.23
64602;BME280;51013;42.630;23.192;2022-09-09T00:57:19;92615.25;;;15.77;91.23
64602;BME280;51013;42.630;23.192;2022-09-09T00:59:51;92621.59;;;15.73;91.04
64602;BME280;51013;42.630;23.192;2022-09-09T01:02:28;92609.31;;;15.61;91.07
64602;BME280;51013;42.630;23.192;2022-09-09T01:05:02;92580.66;;;15.33;91.77
64602;BME280;51013;42.630;23.192;2022-09-09T01:07:31;92577.97;;;15.29;91.95
64602;BME280;51013;42.630;23.192;2022-09-09T01:10:00;92609.56;;;15.49;91.91
64602;BME280;51013;42.630;23.192;2022-09-09T01:12:35;92629.31;;;15.55;91.61
64602;BME280;51013;42.630;23.192;2022-09-09T01:15:09;92599.84;;;15.26;91.78
64602;BME280;51013;42.630;23.192;2022-09-09T01:17:48;92634.59;;;15.55;91.90
64602;BME280;51013;42.630;23.192;2022-09-09T01:20:20;92617.97;;;15.54;91.84
64602;BME280;51013;42.630;23.192;2022-09-09T01:23:00;92564.97;;;15.20;90.81
64602;BME280;51013;42.630;23.192;2022-09-09T01:26:09;92602.22;;;15.35;91.03
64602;BME280;51013;42.630;23.192;2022-09-09T01:28:42;92637.22;;;15.51;91.26
64602;BME280;51013;42.630;23.192;2022-09-09T01:31:12;92562.56;;;15.08;91.35
64602;BME280;51013;42.630;23.192;2022-09-09T01:33:41;92624.41;;;15.57;90.82
64602;BME280;51013;42.630;23.192;2022-09-09T01:36:12;92627.06;;;15.57;90.90
64602;BME280;51013;42.630;23.192;2022-09-09T01:38:42;92480.22;;;14.53;90.91
64602;BME280;51013;42.630;23.192;2022-09-09T01:41:10;92598.34;;;15.29;91.18
64602;BME280;51013;42.630;23.192;2022-09-09T01:43:37;92638.84;;;15.29;92.24
64602;BME280;51013;42.630;23.192;2022-09-09T01:46:04;92627.97;;;15.38;92.55
64602;BME280;51013;42.630;23.192;2022-09-09T01:48:32;92623.47;;;15.42;92.25
64602;BME280;51013;42.630;23.192;2022-09-09T01:50:59;92630.31;;;15.43;92.09
64602;BME280;51013;42.630;23.192;2022-09-09T01:53:26;92475.84;;;14.37;91.84
64602;BME280;51013;42.630;23.192;2022-09-09T01:56:01;92634.41;;;15.40;91.73
64602;BME280;51013;42.630;23.192;2022-09-09T01:58:38;92622.69;;;15.38;92.13
64602;BME280;51013;42.630;23.192;2022-09-09T02:01:19;92622.63;;;15.34;91.74
64602;BME280;51013;42.630;23.192;2022-09-09T02:03:52;92630.16;;;15.32;91.97
64602;BME280;51013;42.630;23.192;2022-09-09T02:06:27;92552.06;;;14.85;91.75
64602;BME280;51013;42.630;23.192;2022-09-09T02:08:58;92628.66;;;15.31;92.28
64602;BME280;51013;42.630;23.192;2022-09-09T02:11:27;92623.00;;;15.33;92.50
64602;BME280;51013;42.630;23.192;2022-09-09T02:14:00;92623.25;;;15.24;92.10
64602;BME280;51013;42.630;23.192;2022-09-09T02:16:30;92596.94;;;15.08;91.51
64602;BME280;51013;42.630;23.192;2022-09-09T02:19:01;92599.91;;;15.03;92.06
64602;BME280;51013;42.630;23.192;2022-09-09T02:21:31;92616.41;;;15.19;92.01
64602;BME280;51013;42.630;23.192;2022-09-09T02:24:03;92627.38;;;15.21;91.74
64602;BME280;51013;42.630;23.192;2022-09-09T02:26:32;92629.28;;;15.21;92.13
64602;BME280;51013;42.630;23.192;2022-09-09T02:29:05;92561.78;;;14.77;91.17
64602;BME280;51013;42.630;23.192;2022-09-09T02:31:34;92625.09;;;15.20;91.70
64602;BME280;51013;42.630;23.192;2022-09-09T02:34:03;92534.38;;;14.62;91.74
64602;BME280;51013;42.630;23.192;2022-09-09T02:36:33;92636.06;;;15.22;91.33
64602;BME280;51013;42.630;23.192;2022-09-09T02:39:03;92647.38;;;15.19;90.98
64602;BME280;51013;42.630;23.192;2022-09-09T02:41:33;92646.59;;;15.18;91.09
64602;BME280;51013;42.630;23.192;2022-09-09T02:44:05;92608.53;;;14.96;90.94
64602;BME280;51013;42.630;23.192;2022-09-09T02:46:52;92644.75;;;15.19;91.15
64602;BME280;51013;42.630;23.192;2022-09-09T02:49:28;92573.28;;;14.62;91.00
64602;BME280;51013;42.630;23.192;2022-09-09T02:52:01;92644.16;;;15.06;91.47
64602;BME280;51013;42.630;23.192;2022-09-09T02:54:32;92650.47;;;14.98;91.82
64602;BME280;51013;42.630;23.192;2022-09-09T02:57:05;92581.00;;;14.51;91.14
64602;BME280;51013;42.630;23.192;2022-09-09T02:59:35;92562.06;;;14.46;91.60
64602;BME280;51013;42.630;23.192;2022-09-09T03:02:02;92628.56;;;14.97;91.42
64602;BME280;51013;42.630;23.192;2022-09-09T03:04:29;92581.56;;;14.60;91.40
64602;BME280;51013;42.630;23.192;2022-09-09T03:06:56;92643.75;;;15.04;91.37
64602;BME280;51013;42.630;23.192;2022-09-09T03:09:23;92645.72;;;15.07;91.19
64602;BME280;51013;42.630;23.192;2022-09-09T03:11:51;92641.19;;;15.08;91.27
64602;BME280;51013;42.630;23.192;2022-09-09T03:14:18;92487.25;;;13.92;91.28
64602;BME280;51013;42.630;23.192;2022-09-09T03:16:48;92636.75;;;14.89;91.77
64602;BME280;51013;42.630;23.192;2022-09-09T03:19:14;92635.38;;;14.98;91.62
64602;BME280;51013;42.630;23.192;2022-09-09T03:21:41;92642.91;;;14.96;92.05
64602;BME280;51013;42.630;23.192;2022-09-09T03:24:08;92616.97;;;14.79;92.16
64602;BME280;51013;42.630;23.192;2022-09-09T03:26:35;92637.16;;;14.91;92.45
64602;BME280;51013;42.630;23.192;2022-09-09T03:29:03;92599.88;;;14.73;92.60
64602;BME280;51013;42.630;23.192;2022-09-09T03:31:31;92640.00;;;14.78;93.63
64602;BME280;51013;42.630;23.192;2022-09-09T03:34:00;92627.38;;;14.68;94.43
64602;BME280;51013;42.630;23.192;2022-09-09T03:36:27;92631.94;;;14.71;93.99
64602;BME280;51013;42.630;23.192;2022-09-09T03:38:54;92628.09;;;14.65;94.64
64602;BME280;51013;42.630;23.192;2022-09-09T03:41:21;92595.63;;;14.45;94.53
64602;BME280;51013;42.630;23.192;2022-09-09T03:43:49;92624.50;;;14.77;94.25
64602;BME280;51013;42.630;23.192;2022-09-09T03:46:16;92637.38;;;14.78;93.90
64602;BME280;51013;42.630;23.192;2022-09-09T03:48:44;92619.75;;;14.63;93.66
64602;BME280;51013;42.630;23.192;2022-09-09T03:51:12;92640.69;;;14.75;94.19
64602;BME280;51013;42.630;23.192;2022-09-09T03:53:39;92607.66;;;14.62;93.97
64602;BME280;51013;42.630;23.192;2022-09-09T03:56:06;92565.59;;;14.30;94.35
64602;BME280;51013;42.630;23.192;2022-09-09T03:58:34;92631.81;;;14.87;95.61
64602;BME280;51013;42.630;23.192;2022-09-09T04:01:03;92621.78;;;14.73;96.62
64602;BME280;51013;42.630;23.192;2022-09-09T04:03:31;92644.75;;;14.92;96.49
64602;BME280;51013;42.630;23.192;2022-09-09T04:05:59;92633.84;;;14.97;96.09
64602;BME280;51013;42.630;23.192;2022-09-09T04:08:29;92565.06;;;14.44;95.90
64602;BME280;51013;42.630;23.192;2022-09-09T04:10:57;92634.59;;;14.98;95.86
64602;BME280;51013;42.630;23.192;2022-09-09T04:13:24;92618.06;;;14.78;96.00
64602;BME280;51013;42.630;23.192;2022-09-09T04:15:52;92611.66;;;14.79;95.71
64602;BME280;51013;42.630;23.192;2022-09-09T04:18:19;92579.91;;;14.52;95.86
64602;BME280;51013;42.630;23.192;2022-09-09T04:20:47;92599.25;;;14.83;95.05
64602;BME280;51013;42.630;23.192;2022-09-09T04:23:14;92556.19;;;14.56;95.71
64602;BME280;51013;42.630;23.192;2022-09-09T04:25:45;92621.03;;;14.99;95.05
64602;BME280;51013;42.630;23.192;2022-09-09T04:28:12;92547.03;;;14.50;95.38
64602;BME280;51013;42.630;23.192;2022-09-09T04:30:39;92626.66;;;14.98;95.39
64602;BME280;51013;42.630;23.192;2022-09-09T04:33:06;92609.97;;;14.90;95.86
64602;BME280;51013;42.630;23.192;2022-09-09T04:35:33;92640.41;;;15.07;95.75
64602;BME280;51013;42.630;23.192;2022-09-09T04:38:00;92529.41;;;14.34;95.82
64602;BME280;51013;42.630;23.192;2022-09-09T04:40:27;92589.34;;;14.76;96.12
64602;BME280;51013;42.630;23.192;2022-09-09T04:42:57;92629.03;;;15.03;96.19
64602;BME280;51013;42.630;23.192;2022-09-09T04:45:24;92491.81;;;14.18;95.84
64602;BME280;51013;42.630;23.192;2022-09-09T04:47:55;92538.13;;;14.61;96.46
64602;BME280;51013;42.630;23.192;2022-09-09T04:50:23;92635.38;;;15.25;96.65
64602;BME280;51013;42.630;23.192;2022-09-09T04:52:50;92605.91;;;15.00;96.58
64602;BME280;51013;42.630;23.192;2022-09-09T04:55:17;92593.31;;;14.90;96.86
64602;BME280;51013;42.630;23.192;2022-09-09T04:57:44;92529.69;;;14.52;97.06
64602;BME280;51013;42.630;23.192;2022-09-09T05:00:13;92633.88;;;15.28;97.82
64602;BME280;51013;42.630;23.192;2022-09-09T05:02:40;92624.81;;;15.29;97.75
64602;BME280;51013;42.630;23.192;2022-09-09T05:05:08;92620.34;;;15.33;97.48
64602;BME280;51013;42.630;23.192;2022-09-09T05:07:36;92498.47;;;14.61;97.73
64602;BME280;51013;42.630;23.192;2022-09-09T05:10:04;92546.28;;;15.06;98.08
64602;BME280;51013;42.630;23.192;2022-09-09T05:12:31;92608.09;;;15.51;97.69
64602;BME280;51013;42.630;23.192;2022-09-09T05:14:58;92574.13;;;15.27;97.87
64602;BME280;51013;42.630;23.192;2022-09-09T05:17:26;92551.44;;;15.26;98.16
64602;BME280;51013;42.630;23.192;2022-09-09T05:19:55;92595.44;;;15.68;98.23
64602;BME280;51013;42.630;23.192;2022-09-09T05:22:22;92592.13;;;15.74;98.65
64602;BME280;51013;42.630;23.192;2022-09-09T05:24:49;92574.19;;;15.64;98.76
64602;BME280;51013;42.630;23.192;2022-09-09T05:27:17;92576.16;;;15.71;98.56
64602;BME280;51013;42.630;23.192;2022-09-09T05:29:44;92599.13;;;15.93;98.68
64602;BME280;51013;42.630;23.192;2022-09-09T05:32:11;92603.75;;;16.00;98.75
64602;BME280;51013;42.630;23.192;2022-09-09T05:34:41;92579.50;;;15.98;98.51
64602;BME280;51013;42.630;23.192;2022-09-09T05:37:08;92591.31;;;16.08;98.73
64602;BME280;51013;42.630;23.192;2022-09-09T05:39:38;92603.94;;;16.21;98.96
64602;BME280;51013;42.630;23.192;2022-09-09T05:42:05;92597.94;;;16.28;98.98
64602;BME280;51013;42.630;23.192;2022-09-09T05:44:33;92477.91;;;15.42;99.40
64602;BME280;51013;42.630;23.192;2022-09-09T05:47:00;92614.38;;;16.48;99.46
64602;BME280;51013;42.630;23.192;2022-09-09T05:49:26;92590.84;;;16.39;98.86
64602;BME280;51013;42.630;23.192;2022-09-09T05:51:55;92569.44;;;16.18;98.56
64602;BME280;51013;42.630;23.192;2022-09-09T05:54:22;92617.56;;;16.68;97.76
64602;BME280;51013;42.630;23.192;2022-09-09T05:56:49;92589.13;;;16.61;97.10
64602;BME280;51013;42.630;23.192;2022-09-09T05:59:16;92592.16;;;16.63;96.70
64602;BME280;51013;42.630;23.192;2022-09-09T06:01:43;92628.00;;;16.88;97.09
64602;BME280;51013;42.630;23.192;2022-09-09T06:04:11;92564.03;;;16.52;97.32
64602;BME280;51013;42.630;23.192;2022-09-09T06:06:38;92565.56;;;16.56;96.24
64602;BME280;51013;42.630;23.192;2022-09-09T06:09:07;92395.56;;;15.54;95.77
64602;BME280;51013;42.630;23.192;2022-09-09T06:11:36;92630.84;;;17.20;95.56
64602;BME280;51013;42.630;23.192;2022-09-09T06:14:04;92636.94;;;17.24;95.41
64602;BME280;51013;42.630;23.192;2022-09-09T06:16:32;92599.25;;;17.00;94.64
64602;BME280;51013;42.630;23.192;2022-09-09T06:18:59;92608.09;;;17.22;95.00
64602;BME280;51013;42.630;23.192;2022-09-09T06:21:29;92586.47;;;17.20;94.52
64602;BME280;51013;42.630;23.192;2022-09-09T06:23:58;92626.13;;;17.58;93.53
64602;BME280;51013;42.630;23.192;2022-09-09T06:26:29;92634.47;;;17.63;92.35
64602;BME280;51013;42.630;23.192;2022-09-09T06:28:56;92623.91;;;17.74;93.04
64602;BME280;51013;42.630;23.192;2022-09-09T06:31:26;92614.81;;;17.79;92.42
64602;BME280;51013;42.630;23.192;2022-09-09T06:33:56;92622.09;;;17.93;92.77
64602;BME280;51013;42.630;23.192;2022-09-09T06:36:26;92607.31;;;18.02;92.88
64602;BME280;51013;42.630;23.192;2022-09-09T06:38:53;92613.00;;;18.08;92.18
64602;BME280;51013;42.630;23.192;2022-09-09T06:41:21;92611.13;;;18.16;92.32
64602;BME280;51013;42.630;23.192;2022-09-09T06:43:50;92599.75;;;18.22;92.21
64602;BME280;51013;42.630;23.192;2022-09-09T06:46:18;92621.81;;;18.34;91.35
64602;BME280;51013;42.630;23.192;2022-09-09T06:48:45;92622.19;;;18.47;91.11
64602;BME280;51013;42.630;23.192;2022-09-09T06:51:14;92600.91;;;18.36;91.57
64602;BME280;51013;42.630;23.192;2022-09-09T06:53:42;92623.72;;;18.69;90.88
64602;BME280;51013;42.630;23.192;2022-09-09T06:56:19;92628.69;;;18.78;88.72
64602;BME280;51013;42.630;23.192;2022-09-09T06:58:50;92565.59;;;18.35;88.33
64602;BME280;51013;42.630;23.192;2022-09-09T07:01:19;92627.19;;;18.98;87.39
64602;BME280;51013;42.630;23.192;2022-09-09T07:03:47;92559.91;;;18.51;86.04
64602;BME280;51013;42.630;23.192;2022-09-09T07:06:17;92637.81;;;19.13;85.33
64602;BME280;51013;42.630;23.192;2022-09-09T07:08:48;92570.88;;;18.78;85.09
64602;BME280;51013;42.630;23.192;2022-09-09T07:11:15;92629.41;;;19.29;85.47
64602;BME280;51013;42.630;23.192;2022-09-09T07:13:42;92524.16;;;18.52;84.27
64602;BME280;51013;42.630;23.192;2022-09-09T07:16:12;92580.78;;;19.07;84.37
64602;BME280;51013;42.630;23.192;2022-09-09T07:18:40;92505.16;;;18.65;85.18
64602;BME280;51013;42.630;23.192;2022-09-09T07:21:09;92595.88;;;19.46;86.52
64602;BME280;51013;42.630;23.192;2022-09-09T07:23:37;92629.69;;;19.74;84.56
64602;BME280;51013;42.630;23.192;2022-09-09T07:26:08;92509.63;;;19.07;82.01
64602;BME280;51013;42.630;23.192;2022-09-09T07:28:36;92627.31;;;19.97;82.04
64602;BME280;51013;42.630;23.192;2022-09-09T07:31:04;92589.63;;;19.92;80.91
64602;BME280;51013;42.630;23.192;2022-09-09T07:33:34;92607.38;;;20.24;75.96
64602;BME280;51013;42.630;23.192;2022-09-09T07:36:04;92569.41;;;20.01;76.80
64602;BME280;51013;42.630;23.192;2022-09-09T07:38:39;92579.16;;;20.23;76.70
64602;BME280;51013;42.630;23.192;2022-09-09T07:41:09;92604.91;;;20.47;75.26
64602;BME280;51013;42.630;23.192;2022-09-09T07:43:38;92601.03;;;20.63;73.89
64602;BME280;51013;42.630;23.192;2022-09-09T07:46:05;92625.16;;;20.97;74.94
64602;BME280;51013;42.630;23.192;2022-09-09T07:48:35;92595.09;;;20.89;72.47
64602;BME280;51013;42.630;23.192;2022-09-09T07:51:07;92614.22;;;21.26;70.01
64602;BME280;51013;42.630;23.192;2022-09-09T07:53:36;92564.13;;;20.99;71.09
64602;BME280;51013;42.630;23.192;2022-09-09T07:56:05;92616.72;;;21.47;71.44
64602;BME280;51013;42.630;23.192;2022-09-09T07:58:34;92593.84;;;21.43;72.30
64602;BME280;51013;42.630;23.192;2022-09-09T08:01:06;92581.53;;;21.52;71.13
64602;BME280;51013;42.630;23.192;2022-09-09T08:03:36;92629.19;;;21.92;71.93
64602;BME280;51013;42.630;23.192;2022-09-09T08:06:07;92568.03;;;21.63;71.29
64602;BME280;51013;42.630;23.192;2022-09-09T08:08:35;92627.69;;;22.18;70.33
64602;BME280;51013;42.630;23.192;2022-09-09T08:11:06;92399.19;;;20.76;67.29
64602;BME280;51013;42.630;23.192;2022-09-09T08:13:35;92623.63;;;22.40;67.19
64602;BME280;51013;42.630;23.192;2022-09-09T08:16:07;92534.56;;;21.82;69.37
64602;BME280;51013;42.630;23.192;2022-09-09T08:18:35;92592.03;;;22.28;66.88
64602;BME280;51013;42.630;23.192;2022-09-09T08:21:11;92496.91;;;21.69;68.08
64602;BME280;51013;42.630;23.192;2022-09-09T08:23:38;92628.38;;;22.80;66.23
64602;BME280;51013;42.630;23.192;2022-09-09T08:26:09;92446.97;;;21.63;65.95
64602;BME280;51013;42.630;23.192;2022-09-09T08:28:36;92580.94;;;22.57;66.41
64602;BME280;51013;42.630;23.192;2022-09-09T08:31:08;92391.13;;;21.41;64.67
64602;BME280;51013;42.630;23.192;2022-09-09T08:33:38;92615.88;;;22.97;65.33
64602;BME280;51013;42.630;23.192;2022-09-09T08:36:06;92552.06;;;22.45;64.98
64602;BME280;51013;42.630;23.192;2022-09-09T08:38:34;92609.13;;;22.89;66.16
64602;BME280;51013;42.630;23.192;2022-09-09T08:41:31;92465.25;;;21.95;66.03
64602;BME280;51013;42.630;23.192;2022-09-09T08:44:07;92501.84;;;22.29;64.64
64602;BME280;51013;42.630;23.192;2022-09-09T08:46:46;92576.56;;;22.90;67.02
64602;BME280;51013;42.630;23.192;2022-09-09T08:49:46;92625.03;;;23.23;67.43
64602;BME280;51013;42.630;23.192;2022-09-09T08:52:19;92561.09;;;22.78;66.84
64602;BME280;51013;42.630;23.192;2022-09-09T08:54:48;92525.69;;;22.67;65.08
64602;BME280;51013;42.630;23.192;2022-09-09T08:57:20;92523.94;;;22.80;67.48
64602;BME280;51013;42.630;23.192;2022-09-09T08:59:52;92617.03;;;23.43;66.81
64602;BME280;51013;42.630;23.192;2022-09-09T09:02:25;92603.34;;;23.37;66.20
64602;BME280;51013;42.630;23.192;2022-09-09T09:05:06;92500.09;;;22.66;66.04
64602;BME280;51013;42.630;23.192;2022-09-09T09:07:45;92457.09;;;22.53;65.95
64602;BME280;51013;42.630;23.192;2022-09-09T09:10:28;92632.75;;;23.85;63.81
64602;BME280;51013;42.630;23.192;2022-09-09T09:12:59;92614.94;;;23.74;63.36
64602;BME280;51013;42.630;23.192;2022-09-09T09:15:31;92628.84;;;23.89;62.72
64602;BME280;51013;42.630;23.192;2022-09-09T09:18:05;92586.28;;;23.48;62.80
64602;BME280;51013;42.630;23.192;2022-09-09T09:20:40;92635.19;;;23.75;63.34
64602;BME280;51013;42.630;23.192;2022-09-09T09:23:13;92628.91;;;23.86;64.23
64602;BME280;51013;42.630;23.192;2022-09-09T09:25:44;92626.16;;;23.89;63.02
64602;BME280;51013;42.630;23.192;2022-09-09T09:28:13;92595.31;;;23.57;62.99
64602;BME280;51013;42.630;23.192;2022-09-09T09:30:45;92508.13;;;23.09;64.20
64602;BME280;51013;42.630;23.192;2022-09-09T09:33:18;92585.63;;;23.84;64.63
64602;BME280;51013;42.630;23.192;2022-09-09T09:35:50;92629.16;;;24.11;62.07
64602;BME280;51013;42.630;23.192;2022-09-09T09:38:18;92617.19;;;24.16;63.67
64602;BME280;51013;42.630;23.192;2022-09-09T09:40:52;92618.28;;;24.18;64.90
64602;BME280;51013;42.630;23.192;2022-09-09T09:43:23;92451.53;;;23.07;64.17
64602;BME280;51013;42.630;23.192;2022-09-09T09:45:51;92519.50;;;23.57;63.81
64602;BME280;51013;42.630;23.192;2022-09-09T09:48:18;92612.84;;;24.22;62.64
64602;BME280;51013;42.630;23.192;2022-09-09T09:50:50;92487.88;;;23.48;64.34
64602;BME280;51013;42.630;23.192;2022-09-09T09:53:25;92459.78;;;23.36;64.62
64602;BME280;51013;42.630;23.192;2022-09-09T09:55:57;92544.28;;;24.01;63.24
64602;BME280;51013;42.630;23.192;2022-09-09T09:58:26;92620.84;;;24.42;63.06
64602;BME280;51013;42.630;23.192;2022-09-09T10:00:55;92621.53;;;24.46;63.70
64602;BME280;51013;42.630;23.192;2022-09-09T10:03:24;92619.50;;;24.34;62.21
64602;BME280;51013;42.630;23.192;2022-09-09T10:05:54;92627.69;;;24.27;62.85
64602;BME280;51013;42.630;23.192;2022-09-09T10:08:22;92520.53;;;23.43;62.78
64602;BME280;51013;42.630;23.192;2022-09-09T10:10:59;92614.44;;;23.99;62.93
64602;BME280;51013;42.630;23.192;2022-09-09T10:13:36;92556.41;;;23.49;64.23
64602;BME280;51013;42.630;23.192;2022-09-09T10:16:17;92466.28;;;22.75;64.19
64602;BME280;51013;42.630;23.192;2022-09-09T10:18:58;92561.69;;;23.33;64.17
64602;BME280;51013;42.630;23.192;2022-09-09T10:21:52;92641.13;;;24.07;66.13
64602;BME280;51013;42.630;23.192;2022-09-09T10:24:51;92642.03;;;24.00;64.95
64602;BME280;51013;42.630;23.192;2022-09-09T10:27:24;92440.00;;;22.67;66.15
64602;BME280;51013;42.630;23.192;2022-09-09T10:30:02;92561.13;;;23.42;64.76
64602;BME280;51013;42.630;23.192;2022-09-09T10:32:49;92549.59;;;23.25;65.85
64602;BME280;51013;42.630;23.192;2022-09-09T10:35:29;92635.19;;;23.75;65.92
64602;BME280;51013;42.630;23.192;2022-09-09T10:38:12;92656.00;;;23.91;68.22
64602;BME280;51013;42.630;23.192;2022-09-09T10:40:46;92648.97;;;23.97;67.76
64602;BME280;51013;42.630;23.192;2022-09-09T10:43:24;92626.63;;;23.84;65.45
64602;BME280;51013;42.630;23.192;2022-09-09T10:46:00;92621.44;;;23.73;66.64
64602;BME280;51013;42.630;23.192;2022-09-09T10:48:40;92663.84;;;24.02;67.83
64602;BME280;51013;42.630;23.192;2022-09-09T10:51:20;92527.25;;;23.11;67.29
64602;BME280;51013;42.630;23.192;2022-09-09T10:54:05;92658.63;;;23.95;66.89
64602;BME280;51013;42.630;23.192;2022-09-09T10:56:38;92663.31;;;23.91;65.73
64602;BME280;51013;42.630;23.192;2022-09-09T10:59:11;92629.22;;;23.68;65.07
64602;BME280;51013;42.630;23.192;2022-09-09T11:01:43;92652.81;;;23.96;67.03
64602;BME280;51013;42.630;23.192;2022-09-09T11:04:16;92656.66;;;23.75;65.80
64602;BME280;51013;42.630;23.192;2022-09-09T11:06:47;92652.63;;;23.87;67.50
64602;BME280;51013;42.630;23.192;2022-09-09T11:09:22;92519.56;;;22.90;65.87
64602;BME280;51013;42.630;23.192;2022-09-09T11:11:53;92497.28;;;22.73;65.99
64602;BME280;51013;42.630;23.192;2022-09-09T11:14:27;92649.31;;;23.79;66.58
64602;BME280;51013;42.630;23.192;2022-09-09T11:16:58;92641.34;;;23.96;68.23
64602;BME280;51013;42.630;23.192;2022-09-09T11:19:34;92641.00;;;23.94;65.85
64602;BME280;51013;42.630;23.192;2022-09-09T11:22:03;92610.00;;;23.93;66.43
64602;BME280;51013;42.630;23.192;2022-09-09T11:24:36;92522.66;;;23.32;66.83
64602;BME280;51013;42.630;23.192;2022-09-09T11:27:09;92548.41;;;23.66;66.92
64602;BME280;51013;42.630;23.192;2022-09-09T11:30:16;92573.19;;;23.93;65.54
64602;BME280;51013;42.630;23.192;2022-09-09T11:33:03;92603.34;;;24.17;68.64
64602;BME280;51013;42.630;23.192;2022-09-09T11:35:46;92553.22;;;23.94;67.63
64602;BME280;51013;42.630;23.192;2022-09-09T11:38:19;92567.84;;;24.10;70.53
64602;BME280;51013;42.630;23.192;2022-09-09T11:40:59;92508.47;;;23.71;65.83
64602;BME280;51013;42.630;23.192;2022-09-09T11:43:30;92514.31;;;23.86;67.70
64602;BME280;51013;42.630;23.192;2022-09-09T11:45:58;92559.56;;;24.20;65.73
64602;BME280;51013;42.630;23.192;2022-09-09T11:48:32;92567.22;;;24.22;68.49
64602;BME280;51013;42.630;23.192;2022-09-09T11:51:05;92541.78;;;24.10;67.28
64602;BME280;51013;42.630;23.192;2022-09-09T11:53:33;92365.72;;;22.91;68.32
64602;BME280;51013;42.630;23.192;2022-09-09T11:56:08;92534.66;;;24.20;66.67
64602;BME280;51013;42.630;23.192;2022-09-09T11:58:41;92574.16;;;24.56;64.86
64602;BME280;51013;42.630;23.192;2022-09-09T12:01:25;92552.06;;;24.48;64.10
64602;BME280;51013;42.630;23.192;2022-09-09T12:06:53;92463.00;;;23.84;63.10
64602;BME280;51013;42.630;23.192;2022-09-09T12:09:29;92532.31;;;24.38;63.76
64602;BME280;51013;42.630;23.192;2022-09-09T12:12:22;92560.84;;;24.49;63.63
64602;BME280;51013;42.630;23.192;2022-09-09T12:15:00;92568.94;;;24.65;64.80
64602;BME280;51013;42.630;23.192;2022-09-09T12:17:29;92558.72;;;24.76;64.45
64602;BME280;51013;42.630;23.192;2022-09-09T12:20:01;92536.72;;;24.65;63.61
64602;BME280;51013;42.630;23.192;2022-09-09T12:22:38;92455.56;;;24.25;62.92
64602;BME280;51013;42.630;23.192;2022-09-09T12:25:16;92549.81;;;24.96;63.23
64602;BME280;51013;42.630;23.192;2022-09-09T12:27:55;92552.16;;;24.77;61.18
64602;BME280;51013;42.630;23.192;2022-09-09T12:30:29;92544.34;;;24.67;62.38
64602;BME280;51013;42.630;23.192;2022-09-09T12:33:02;92511.38;;;24.50;62.84
64602;BME280;51013;42.630;23.192;2022-09-09T12:35:29;92545.03;;;24.71;62.19
64602;BME280;51013;42.630;23.192;2022-09-09T12:37:59;92547.28;;;24.72;62.99
64602;BME280;51013;42.630;23.192;2022-09-09T12:40:28;92420.94;;;23.81;62.82
64602;BME280;51013;42.630;23.192;2022-09-09T12:42:58;92342.03;;;23.09;62.58
64602;BME280;51013;42.630;23.192;2022-09-09T12:45:28;92423.41;;;23.72;64.47
64602;BME280;51013;42.630;23.192;2022-09-09T12:47:58;92533.78;;;24.59;65.95
64602;BME280;51013;42.630;23.192;2022-09-09T12:50:29;92536.88;;;24.74;66.13
64602;BME280;51013;42.630;23.192;2022-09-09T12:52:59;92506.41;;;24.48;64.70
64602;BME280;51013;42.630;23.192;2022-09-09T12:55:31;92534.28;;;24.71;63.98
64602;BME280;51013;42.630;23.192;2022-09-09T12:58:01;92455.63;;;24.05;66.59
64602;BME280;51013;42.630;23.192;2022-09-09T13:00:31;92472.84;;;24.07;65.28
64602;BME280;51013;42.630;23.192;2022-09-09T13:02:59;92517.63;;;24.27;65.17
64602;BME280;51013;42.630;23.192;2022-09-09T13:05:28;92288.53;;;22.69;65.69
64602;BME280;51013;42.630;23.192;2022-09-09T13:08:01;92519.56;;;24.10;65.27
64602;BME280;51013;42.630;23.192;2022-09-09T13:10:31;92387.50;;;23.49;65.91
64602;BME280;51013;42.630;23.192;2022-09-09T13:13:01;92369.66;;;23.43;64.68
64602;BME280;51013;42.630;23.192;2022-09-09T13:15:29;92307.41;;;23.18;63.67
64602;BME280;51013;42.630;23.192;2022-09-09T13:17:58;92514.41;;;24.52;62.94
64602;BME280;51013;42.630;23.192;2022-09-09T13:20:26;92338.91;;;23.31;62.93
64602;BME280;51013;42.630;23.192;2022-09-09T13:22:54;92502.78;;;24.38;64.11